Hitachimaru — JD2063 — position and weather

sailwx.info

Track history (hours):
 
Tides and Currents Weather Stations Pressure Air Temp Water Temp Dewpoint Dewpoint Depression Visibility Wind Speed Wind Dir Waves Ship Positions

Hitachimaru

Last reported at 2017-Apr-25 00:16 UTC. Time now 2017-Apr-25 00:45 UTC.
Position N 34°35' E 135°27'.

Length 83 m; draft 4.7 m.

Type: Cargo ship. MMSI: 431301756.

Date/timePositionNaut miles runAvg speedWind from/ knotsBaromVisibWave heightAir tempDewpointWater temp
2017-Apr-25 00:16N 34°35' E 135°27'1 4.5
2017-Apr-25 00:00N 34°35' E 135°26'5 9.5
2017-Apr-24 23:30N 34°35' E 135°20'611.5
2017-Apr-24 23:00N 34°31' E 135°15'611.8
2017-Apr-24 22:30N 34°27' E 135°10'611.1
2017-Apr-24 22:00N 34°22' E 135°06'612.4
2017-Apr-24 21:29N 34°16' E 135°03'4 8.0
2017-Apr-24 21:00N 34°14' E 135°07'0 0.2
2017-Apr-24 20:30N 34°15' E 135°07'0 0.0
2017-Apr-24 20:00N 34°15' E 135°07'0 0.0
2017-Apr-24 19:21N 34°15' E 135°07'0 0.0
2017-Apr-24 18:59N 34°15' E 135°07'0 0.0
2017-Apr-24 18:26N 34°15' E 135°07'0 0.0
2017-Apr-24 17:56N 34°15' E 135°07'0 0.0
2017-Apr-24 17:26N 34°15' E 135°07'0 0.0
2017-Apr-24 16:59N 34°15' E 135°07'0 0.0
2017-Apr-24 16:26N 34°15' E 135°07'0 0.2
2017-Apr-24 15:59N 34°15' E 135°07'0 0.0
2017-Apr-24 15:23N 34°15' E 135°07'0 0.0
2017-Apr-24 14:53N 34°15' E 135°07'0 0.0
2017-Apr-24 14:29N 34°15' E 135°07'0 0.0
2017-Apr-24 13:29N 34°15' E 135°07'0 0.0
2017-Apr-24 12:59N 34°15' E 135°07'0 0.0
2017-Apr-24 12:29N 34°15' E 135°07'0 0.0
2017-Apr-24 11:56N 34°15' E 135°07'0 0.0
2017-Apr-24 10:53N 34°15' E 135°07'0 0.0
2017-Apr-24 10:29N 34°15' E 135°07'0 0.4
2017-Apr-24 10:00N 34°14' E 135°07'1 2.6
2017-Apr-24 09:29N 34°15' E 135°06'0 0.0
2017-Apr-24 08:56N 34°15' E 135°06'0 0.0
2017-Apr-24 08:29N 34°15' E 135°06'0 0.0
2017-Apr-24 07:56N 34°15' E 135°06'0 0.0
2017-Apr-24 07:26N 34°15' E 135°06'0 0.0
2017-Apr-24 06:59N 34°15' E 135°06'0 0.3
2017-Apr-24 06:30N 34°15' E 135°05'612.2
2017-Apr-24 06:00N 34°11' E 134°60'  
2017-Apr-19 02:00N 34°12' E 134°58'1312.6
2017-Apr-19 00:56N 34°25' E 135°01'512.7
2017-Apr-19 00:30N 34°30' E 135°03'612.2
2017-Apr-19 00:00N 34°36' E 135°02'714.0
2017-Apr-18 23:29N 34°37' E 134°53'714.1
2017-Apr-18 23:00N 34°41' E 134°46'  
2017-Apr-16 03:14N 34°37' E 134°58'312.9
2017-Apr-16 02:58N 34°37' E 135°02'612.2
2017-Apr-16 02:31N 34°36' E 135°09'712.9
2017-Apr-16 02:00N 34°36' E 135°17'612.0
2017-Apr-16 01:31N 34°36' E 135°24'2 0.2
2017-Apr-15 12:50N 34°35' E 135°27'2 5.4
2017-Apr-15 12:30N 34°36' E 135°25'5 9.5
2017-Apr-15 12:00N 34°34' E 135°20'611.3
2017-Apr-15 11:29N 34°30' E 135°14'511.2
2017-Apr-15 11:00N 34°26' E 135°10'611.3
2017-Apr-15 10:27N 34°21' E 135°06'612.5
2017-Apr-15 10:00N 34°16' E 135°03'4 7.7
2017-Apr-15 09:31N 34°14' E 135°07'0 0.3
2017-Apr-15 08:45N 34°15' E 135°07'0 0.0
2017-Apr-15 08:27N 34°15' E 135°07'0 0.0
2017-Apr-15 07:48N 34°15' E 135°07'0 0.0
2017-Apr-15 07:27N 34°15' E 135°07'0 0.0
2017-Apr-15 06:18N 34°15' E 135°07'0 0.0
2017-Apr-15 05:36N 34°15' E 135°07'0 0.0
2017-Apr-15 05:24N 34°15' E 135°07'0 0.0
2017-Apr-15 05:00N 34°15' E 135°07'0 0.0
2017-Apr-15 04:30N 34°15' E 135°07'0 0.0
2017-Apr-15 03:57N 34°15' E 135°07'0 0.0
2017-Apr-15 03:27N 34°15' E 135°07'0 0.0
2017-Apr-15 02:39N 34°15' E 135°07'0 0.1
2017-Apr-15 02:27N 34°15' E 135°07'0 0.1
2017-Apr-15 01:54N 34°15' E 135°07'0 0.0
2017-Apr-15 01:30N 34°15' E 135°07'0 0.0
2017-Apr-15 00:57N 34°15' E 135°07'0 0.0
2017-Apr-15 00:27N 34°15' E 135°07'  
Track history (hours):
 
Tides and Currents Weather Stations Pressure Air Temp Water Temp Dewpoint Dewpoint Depression Visibility Wind Speed Wind Dir Waves Ship Positions

Hitachimaru

Last reported at 2017-Apr-25 00:16 UTC. Time now 2017-Apr-25 00:45 UTC.
Position N 34°35' E 135°27'.

Length 83 m; draft 4.7 m.

Type: Cargo ship. MMSI: 431301756.

Date/timePositionNaut miles runAvg speedWind from/ knotsBaromVisibWave heightAir tempDewpointWater temp
2017-Apr-25 00:16N 34°35' E 135°27'1 4.5
2017-Apr-25 00:00N 34°35' E 135°26'5 9.5
2017-Apr-24 23:30N 34°35' E 135°20'611.5
2017-Apr-24 23:00N 34°31' E 135°15'611.8
2017-Apr-24 22:30N 34°27' E 135°10'611.1
2017-Apr-24 22:00N 34°22' E 135°06'612.4
2017-Apr-24 21:29N 34°16' E 135°03'4 8.0
2017-Apr-24 21:00N 34°14' E 135°07'0 0.2
2017-Apr-24 20:30N 34°15' E 135°07'0 0.0
2017-Apr-24 20:00N 34°15' E 135°07'0 0.0
2017-Apr-24 19:21N 34°15' E 135°07'0 0.0
2017-Apr-24 18:59N 34°15' E 135°07'0 0.0
2017-Apr-24 18:26N 34°15' E 135°07'0 0.0
2017-Apr-24 17:56N 34°15' E 135°07'0 0.0
2017-Apr-24 17:26N 34°15' E 135°07'0 0.0
2017-Apr-24 16:59N 34°15' E 135°07'0 0.0
2017-Apr-24 16:26N 34°15' E 135°07'0 0.2
2017-Apr-24 15:59N 34°15' E 135°07'0 0.0
2017-Apr-24 15:23N 34°15' E 135°07'0 0.0
2017-Apr-24 14:53N 34°15' E 135°07'0 0.0
2017-Apr-24 14:29N 34°15' E 135°07'0 0.0
2017-Apr-24 13:29N 34°15' E 135°07'0 0.0
2017-Apr-24 12:59N 34°15' E 135°07'0 0.0
2017-Apr-24 12:29N 34°15' E 135°07'0 0.0
2017-Apr-24 11:56N 34°15' E 135°07'0 0.0
2017-Apr-24 10:53N 34°15' E 135°07'0 0.0
2017-Apr-24 10:29N 34°15' E 135°07'0 0.4
2017-Apr-24 10:00N 34°14' E 135°07'1 2.6
2017-Apr-24 09:29N 34°15' E 135°06'0 0.0
2017-Apr-24 08:56N 34°15' E 135°06'0 0.0
2017-Apr-24 08:29N 34°15' E 135°06'0 0.0
2017-Apr-24 07:56N 34°15' E 135°06'0 0.0
2017-Apr-24 07:26N 34°15' E 135°06'0 0.0
2017-Apr-24 06:59N 34°15' E 135°06'0 0.3
2017-Apr-24 06:30N 34°15' E 135°05'612.2
2017-Apr-24 06:00N 34°11' E 134°60'  
2017-Apr-19 02:00N 34°12' E 134°58'1312.6
2017-Apr-19 00:56N 34°25' E 135°01'512.7
2017-Apr-19 00:30N 34°30' E 135°03'612.2
2017-Apr-19 00:00N 34°36' E 135°02'714.0
2017-Apr-18 23:29N 34°37' E 134°53'714.1
2017-Apr-18 23:00N 34°41' E 134°46'  
2017-Apr-16 03:14N 34°37' E 134°58'312.9
2017-Apr-16 02:58N 34°37' E 135°02'612.2
2017-Apr-16 02:31N 34°36' E 135°09'712.9
2017-Apr-16 02:00N 34°36' E 135°17'612.0
2017-Apr-16 01:31N 34°36' E 135°24'2 0.2
2017-Apr-15 12:50N 34°35' E 135°27'2 5.4
2017-Apr-15 12:30N 34°36' E 135°25'5 9.5
2017-Apr-15 12:00N 34°34' E 135°20'611.3
2017-Apr-15 11:29N 34°30' E 135°14'511.2
2017-Apr-15 11:00N 34°26' E 135°10'611.3
2017-Apr-15 10:27N 34°21' E 135°06'612.5
2017-Apr-15 10:00N 34°16' E 135°03'4 7.7
2017-Apr-15 09:31N 34°14' E 135°07'0 0.3
2017-Apr-15 08:45N 34°15' E 135°07'0 0.0
2017-Apr-15 08:27N 34°15' E 135°07'0 0.0
2017-Apr-15 07:48N 34°15' E 135°07'0 0.0
2017-Apr-15 07:27N 34°15' E 135°07'0 0.0
2017-Apr-15 06:18N 34°15' E 135°07'0 0.0
2017-Apr-15 05:36N 34°15' E 135°07'0 0.0
2017-Apr-15 05:24N 34°15' E 135°07'0 0.0
2017-Apr-15 05:00N 34°15' E 135°07'0 0.0
2017-Apr-15 04:30N 34°15' E 135°07'0 0.0
2017-Apr-15 03:57N 34°15' E 135°07'0 0.0
2017-Apr-15 03:27N 34°15' E 135°07'0 0.0
2017-Apr-15 02:39N 34°15' E 135°07'0 0.1
2017-Apr-15 02:27N 34°15' E 135°07'0 0.1
2017-Apr-15 01:54N 34°15' E 135°07'0 0.0
2017-Apr-15 01:30N 34°15' E 135°07'0 0.0
2017-Apr-15 00:57N 34°15' E 135°07'0 0.0
2017-Apr-15 00:27N 34°15' E 135°07'  

Dump ship's entire track history